Time,TemperatureF,DewpointF,PressureIn,WindDirection,WindDirectionDegrees,WindSpeedMPH,WindSpeedGustMPH,Humidity,HourlyPrecipIn,Conditions,Clouds,dailyrainin,SoftwareType,DateUTC
2013-12-04 00:42:00,39.0,26.0,-100.00,North,10,8.0,27.0,60,-99.99,,,0.00,,2013-12-04 07:42:00,
2013-12-04 01:21:00,39.0,27.0,-100.00,North,10,7.0,31.0,61,-99.99,,,0.00,,2013-12-04 08:21:00,
2013-12-04 01:42:00,39.0,27.0,-100.00,North,10,13.0,26.0,61,-99.99,,,0.00,,2013-12-04 08:42:00,
2013-12-04 02:22:00,39.0,27.0,-100.00,North,11,8.0,27.0,62,-99.99,,,0.00,,2013-12-04 09:22:00,
2013-12-04 03:23:00,39.0,28.0,-100.00,North,10,2.0,21.0,65,-99.99,,,0.00,,2013-12-04 10:23:00,
2013-12-04 03:42:00,38.0,28.0,-100.00,North,11,6.0,24.0,65,-99.99,,,0.00,,2013-12-04 10:42:00,
2013-12-04 04:22:00,38.0,28.0,-100.00,North,10,7.0,25.0,69,-99.99,,,0.00,,2013-12-04 11:22:00,
2013-12-04 05:22:00,37.0,29.0,-100.00,North,10,6.0,23.0,72,-99.99,,,0.00,,2013-12-04 12:22:00,
2013-12-04 05:42:00,37.0,29.0,-100.00,North,11,10.0,29.0,73,-99.99,,,0.00,,2013-12-04 12:42:00,
2013-12-04 05:52:00,36.0,29.0,-100.00,North,11,4.0,29.0,74,-99.99,,,0.00,,2013-12-04 12:52:00,
2013-12-04 06:22:00,36.0,29.0,-100.00,North,10,13.0,23.0,76,-99.99,,,0.00,,2013-12-04 13:22:00,
2013-12-04 06:42:00,36.0,29.0,-100.00,NNE,15,2.0,18.0,77,-99.99,,,0.00,,2013-12-04 13:42:00,
2013-12-04 07:21:00,36.0,30.0,-100.00,North,10,12.0,17.0,79,-99.99,,,0.00,,2013-12-04 14:21:00,
2013-12-04 08:22:00,36.0,30.0,-100.00,North,11,3.0,24.0,78,-99.99,,,0.00,,2013-12-04 15:22:00,
2013-12-04 08:53:00,32.0,26.0,-100.00,North,4,7.0,20.0,78,-99.99,,,0.00,,2013-12-04 15:53:00,
2013-12-04 09:23:00,29.0,24.0,-100.00,NNE,15,0.0,8.0,82,-99.99,,,0.00,,2013-12-04 16:23:00,
2013-12-04 10:12:00,28.0,23.0,-100.00,NNE,19,1.0,3.0,82,-99.99,,,0.00,,2013-12-04 17:12:00,
2013-12-04 10:22:00,27.0,23.0,-100.00,NNE,32,0.0,5.0,83,-99.99,,,0.00,,2013-12-04 17:22:00,
2013-12-04 10:42:00,27.0,22.0,-100.00,NNE,22,0.0,8.0,83,-99.99,,,0.00,,2013-12-04 17:42:00,
2013-12-04 11:42:00,27.0,22.0,-100.00,NNE,14,3.0,7.0,82,-99.99,,,0.00,,2013-12-04 18:42:00,
2013-12-04 11:52:00,26.0,21.0,-100.00,NNE,15,2.0,7.0,81,-99.99,,,0.00,,2013-12-04 18:52:00,
2013-12-04 12:21:00,26.0,21.0,-100.00,NNE,16,5.0,14.0,80,-99.99,,,0.00,,2013-12-04 19:21:00,
2013-12-04 13:22:00,27.0,17.0,-100.00,NNE,16,2.0,10.0,66,-99.99,,,0.00,,2013-12-04 20:22:00,
2013-12-04 13:42:00,27.0,17.0,-100.00,NNE,14,4.0,13.0,64,-99.99,,,0.00,,2013-12-04 20:42:00,
2013-12-04 14:43:00,29.0,18.0,-100.00,NNE,16,4.0,11.0,62,-99.99,,,0.00,,2013-12-04 21:43:00,
2013-12-04 15:23:00,30.0,18.0,-100.00,NNE,18,6.0,11.0,61,-99.99,,,0.00,,2013-12-04 22:23:00,
2013-12-04 16:42:00,28.0,15.0,-100.00,NNE,16,5.0,5.0,58,-99.99,,,0.00,,2013-12-04 23:42:00,
2013-12-04 17:42:00,26.0,15.0,-100.00,North,11,2.0,7.0,62,-99.99,,,0.00,,2013-12-05 00:42:00,
2013-12-04 18:21:00,25.0,14.0,-100.00,North,10,0.0,5.0,64,-99.99,,,0.00,,2013-12-05 01:21:00,
2013-12-04 18:42:00,24.0,14.0,-100.00,North,11,0.0,1.0,64,-99.99,,,0.00,,2013-12-05 01:42:00,
2013-12-04 19:22:00,23.0,14.0,-100.00,North,10,0.0,3.0,67,-99.99,,,0.00,,2013-12-05 02:22:00,
2013-12-04 20:21:00,20.0,10.0,-100.00,NE,43,0.0,9.0,65,-99.99,,,0.00,,2013-12-05 03:21:00,
2013-12-04 21:23:00,20.0,10.0,-100.00,NE,43,0.0,1.0,66,-99.99,,,0.00,,2013-12-05 04:23:00,
2013-12-04 21:42:00,19.0,10.0,-100.00,NE,43,0.0,0.0,68,-99.99,,,0.00,,2013-12-05 04:42:00,
2013-12-04 22:12:00,18.0,10.0,-100.00,NE,43,0.0,0.0,68,-99.99,,,0.00,,2013-12-05 05:12:00,
2013-12-04 22:52:00,18.0,9.0,-100.00,NE,43,0.0,0.0,68,-99.99,,,0.00,,2013-12-05 05:52:00,
2013-12-04 23:42:00,19.0,9.0,-100.00,NE,43,0.0,0.0,65,-99.99,,,0.00,,2013-12-05 06:42:00,